createdAt,value
2023-05-19T00:00:09.299Z,95689.41
2023-05-19T00:02:37.089Z,95683.31
2023-05-19T00:05:05.598Z,95675.06
2023-05-19T00:07:36.591Z,95683.97
2023-05-19T00:10:04.780Z,95685.22
2023-05-19T00:12:32.298Z,95681.56
2023-05-19T00:15:01.650Z,95684.78
2023-05-19T00:20:13.947Z,95682.69
2023-05-19T00:22:41.197Z,95675.56
2023-05-19T00:25:09.196Z,95673.72
2023-05-19T00:27:36.388Z,95671.38
2023-05-19T00:30:06.206Z,95666.13
2023-05-19T00:32:33.321Z,95668.41
2023-05-19T00:35:00.618Z,95670.06
2023-05-19T00:37:27.742Z,95664.06
2023-05-19T00:39:54.961Z,95659.75
2023-05-19T00:42:22.081Z,95653.09
2023-05-19T00:44:49.309Z,95663.03
2023-05-19T00:47:17.884Z,95660.03
2023-05-19T00:49:45.039Z,95660.44
2023-05-19T00:52:12.297Z,95661.09
2023-05-19T00:54:39.627Z,95658.38
2023-05-19T00:57:07.334Z,95658.94
2023-05-19T00:59:34.818Z,95659.34
2023-05-19T01:02:02.356Z,95655.91
2023-05-19T01:04:33.063Z,95660.44
2023-05-19T01:07:01.131Z,95662.19
2023-05-19T01:09:28.738Z,95658.59
2023-05-19T01:11:56.244Z,95658.78
2023-05-19T01:14:23.741Z,95655.66
2023-05-19T01:17:01.216Z,95653.91
2023-05-19T01:19:51.065Z,95656.72
2023-05-19T01:22:40.220Z,95651.53
2023-05-19T01:25:45.118Z,95662.22
2023-05-19T01:28:48.602Z,95653.81
2023-05-19T01:31:19.533Z,95657.63
2023-05-19T01:33:49.185Z,95656.00
2023-05-19T01:36:19.558Z,95658.69
2023-05-19T01:38:51.225Z,95659.16
2023-05-19T01:41:20.005Z,95668.22
2023-05-19T01:43:48.557Z,95667.53
2023-05-19T01:46:19.007Z,95664.19
2023-05-19T01:48:47.703Z,95663.59
2023-05-19T01:51:14.832Z,95662.78
2023-05-19T01:53:42.086Z,95656.25
2023-05-19T01:56:09.485Z,95657.28
2023-05-19T01:58:45.605Z,95661.53
2023-05-19T02:01:29.476Z,95660.38
2023-05-19T02:04:15.039Z,95658.31
2023-05-19T02:06:49.987Z,95655.69
2023-05-19T02:09:25.663Z,95659.81
2023-05-19T02:12:00.394Z,95654.19
2023-05-19T02:14:33.160Z,95659.31
2023-05-19T02:17:05.523Z,95655.44
2023-05-19T02:19:35.570Z,95650.38
2023-05-19T02:22:02.801Z,95650.03
2023-05-19T02:24:30.165Z,95649.00
2023-05-19T02:26:57.381Z,95646.59
2023-05-19T02:29:24.583Z,95656.25
2023-05-19T02:31:51.801Z,95657.75
2023-05-19T02:34:20.622Z,95653.28
2023-05-19T02:36:47.819Z,95662.56
2023-05-19T02:39:14.926Z,95654.03
2023-05-19T02:41:42.041Z,95650.81
2023-05-19T02:44:09.195Z,95657.25
2023-05-19T02:46:36.479Z,95646.38
2023-05-19T02:49:03.788Z,95655.34
2023-05-19T02:51:32.438Z,95652.53
2023-05-19T02:53:59.558Z,95649.47
2023-05-19T02:56:26.759Z,95647.16
2023-05-19T02:58:53.883Z,95640.16
2023-05-19T03:01:21.002Z,95640.16
2023-05-19T03:03:48.253Z,95636.94
2023-05-19T03:06:15.697Z,95643.22
2023-05-19T03:08:44.259Z,95635.06
2023-05-19T03:11:11.420Z,95639.75
2023-05-19T03:13:38.685Z,95645.84
2023-05-19T03:16:06.014Z,95634.94
2023-05-19T03:18:33.283Z,95636.41
2023-05-19T03:21:00.663Z,95632.44
2023-05-19T03:23:27.850Z,95627.31
2023-05-19T03:25:56.459Z,95627.88
2023-05-19T03:28:23.682Z,95620.88
2023-05-19T03:30:51.038Z,95614.69
2023-05-19T03:33:18.519Z,95622.75
2023-05-19T03:35:46.249Z,95622.47
2023-05-19T03:38:13.445Z,95616.03
2023-05-19T03:40:40.915Z,95616.66
2023-05-19T03:43:09.502Z,95623.38
2023-05-19T03:45:36.713Z,95625.94
2023-05-19T03:48:04.391Z,95621.69
2023-05-19T03:50:32.175Z,95628.66
2023-05-19T03:52:59.446Z,95628.47
2023-05-19T03:55:26.953Z,95633.81
2023-05-19T03:57:54.190Z,95638.53
2023-05-19T04:00:22.963Z,95636.44
2023-05-19T04:02:50.157Z,95647.91
2023-05-19T04:05:17.557Z,95644.31
2023-05-19T04:07:44.744Z,95644.63
2023-05-19T04:10:12.871Z,95650.59
2023-05-19T04:12:40.263Z,95643.63
2023-05-19T04:15:08.746Z,95642.97
2023-05-19T04:17:37.672Z,95651.03
2023-05-19T04:20:05.923Z,95654.44
2023-05-19T04:22:33.088Z,95658.47
2023-05-19T04:25:00.243Z,95651.22
2023-05-19T04:27:27.604Z,95650.78
2023-05-19T04:29:54.822Z,95655.28
2023-05-19T04:32:22.107Z,95650.91
2023-05-19T04:34:50.783Z,95652.41
2023-05-19T04:37:18.115Z,95653.09
2023-05-19T04:39:45.481Z,95655.22
2023-05-19T04:42:12.745Z,95661.16
2023-05-19T04:44:40.177Z,95660.19
2023-05-19T04:47:07.879Z,95654.19
2023-05-19T04:49:35.526Z,95662.56
2023-05-19T04:52:04.784Z,95661.16
2023-05-19T04:54:31.925Z,95661.19
2023-05-19T04:56:59.046Z,95659.84
2023-05-19T04:59:26.271Z,95665.16
2023-05-19T05:01:53.543Z,95667.88
2023-05-19T05:04:20.685Z,95661.78
2023-05-19T05:06:48.166Z,95669.69
2023-05-19T05:09:17.824Z,95669.84
2023-05-19T05:11:45.984Z,95658.13
2023-05-19T05:14:13.856Z,95659.31
2023-05-19T05:16:41.732Z,95659.56
2023-05-19T05:19:09.768Z,95662.69
2023-05-19T05:21:37.798Z,95658.47
2023-05-19T05:24:05.900Z,95659.88
2023-05-19T05:26:36.040Z,95660.94
2023-05-19T05:29:03.565Z,95659.09
2023-05-19T05:31:30.838Z,95658.41
2023-05-19T05:33:58.409Z,95666.38
2023-05-19T05:36:25.701Z,95656.72
2023-05-19T05:38:52.799Z,95657.97
2023-05-19T05:41:19.948Z,95662.59
2023-05-19T05:43:48.576Z,95657.53
2023-05-19T05:46:15.833Z,95655.91
2023-05-19T05:48:43.678Z,95657.28
2023-05-19T05:51:11.317Z,95653.63
2023-05-19T05:53:42.258Z,95655.78
2023-05-19T05:56:11.396Z,95648.09
2023-05-19T05:58:38.560Z,95654.66
2023-05-19T06:01:07.423Z,95653.00
2023-05-19T06:03:34.815Z,95656.75
2023-05-19T06:06:02.115Z,95654.97
2023-05-19T06:08:29.401Z,95649.28
2023-05-19T06:10:56.557Z,95646.13
2023-05-19T06:13:23.711Z,95649.78
2023-05-19T06:15:51.537Z,95650.03
2023-05-19T06:18:20.082Z,95645.31
2023-05-19T06:20:47.325Z,95646.22
2023-05-19T06:23:14.517Z,95636.88
2023-05-19T06:25:41.606Z,95644.50
2023-05-19T06:28:08.764Z,95643.94
2023-05-19T06:30:36.102Z,95643.44
2023-05-19T06:33:03.751Z,95635.59
2023-05-19T06:35:32.470Z,95638.44
2023-05-19T06:37:59.743Z,95639.88
2023-05-19T06:40:26.946Z,95638.38
2023-05-19T06:42:54.024Z,95645.06
2023-05-19T06:45:21.245Z,95646.31
2023-05-19T06:47:48.587Z,95642.78
2023-05-19T06:50:16.205Z,95644.06
2023-05-19T06:52:44.820Z,95636.44
2023-05-19T06:55:11.923Z,95640.56
2023-05-19T06:57:39.285Z,95628.16
2023-05-19T07:00:08.001Z,95631.00
2023-05-19T07:02:35.211Z,95629.09
2023-05-19T07:05:02.721Z,95628.78
2023-05-19T07:07:29.884Z,95627.69
2023-05-19T07:09:58.550Z,95629.38
2023-05-19T07:12:25.989Z,95628.97
2023-05-19T07:14:53.358Z,95641.34
2023-05-19T07:17:22.958Z,95634.09
2023-05-19T07:19:50.149Z,95633.00
2023-05-19T07:22:17.411Z,95640.34
2023-05-19T07:24:44.794Z,95639.00
2023-05-19T07:27:13.444Z,95637.22
2023-05-19T07:29:40.668Z,95641.44
2023-05-19T07:32:07.909Z,95636.41
2023-05-19T07:34:35.288Z,95638.06
2023-05-19T07:37:02.411Z,95636.41
2023-05-19T07:39:29.828Z,95630.69
2023-05-19T07:41:57.396Z,95625.16
2023-05-19T07:44:26.229Z,95623.59
2023-05-19T07:46:53.587Z,95621.03
2023-05-19T07:49:20.807Z,95625.13
2023-05-19T07:51:48.234Z,95617.25
2023-05-19T07:54:15.800Z,95618.28
2023-05-19T07:56:43.056Z,95610.09
2023-05-19T07:59:10.286Z,95606.81
2023-05-19T08:01:38.949Z,95620.63
2023-05-19T08:04:06.422Z,95614.22
2023-05-19T08:06:33.925Z,95610.72
2023-05-19T08:09:01.244Z,95615.00
2023-05-19T08:11:28.385Z,95606.81
2023-05-19T08:13:55.926Z,95605.22
2023-05-19T08:16:23.357Z,95607.03
2023-05-19T08:18:52.086Z,95605.75
2023-05-19T08:21:19.254Z,95600.44
2023-05-19T08:23:46.431Z,95612.13
2023-05-19T08:26:13.630Z,95608.72
2023-05-19T08:28:40.707Z,95602.84
2023-05-19T08:31:07.962Z,95605.97
2023-05-19T08:33:35.091Z,95614.34
2023-05-19T08:36:04.520Z,95602.59
2023-05-19T08:38:31.654Z,95606.19
2023-05-19T08:40:58.911Z,95598.56
2023-05-19T08:43:26.498Z,95594.88
2023-05-19T08:45:55.051Z,95582.81
2023-05-19T08:48:23.389Z,95590.31
2023-05-19T08:51:03.056Z,95592.22
2023-05-19T08:53:37.188Z,95589.50
2023-05-19T08:56:11.272Z,95591.09
2023-05-19T08:58:40.275Z,95585.75
2023-05-19T09:01:09.653Z,95586.34
2023-05-19T09:03:38.275Z,95585.28
2023-05-19T09:06:07.138Z,95584.19
2023-05-19T09:08:35.820Z,95585.25
2023-05-19T09:11:03.030Z,95582.03
2023-05-19T09:13:30.467Z,95577.78
2023-05-19T09:15:58.790Z,95576.34
2023-05-19T09:18:27.246Z,95572.38
2023-05-19T09:20:58.268Z,95564.06
2023-05-19T09:23:28.047Z,95558.91
2023-05-19T09:25:57.712Z,95556.25
2023-05-19T09:28:26.165Z,95550.97
2023-05-19T09:31:00.553Z,95553.38
2023-05-19T09:33:28.411Z,95550.75
2023-05-19T09:35:55.686Z,95556.94
2023-05-19T09:38:24.275Z,95554.72
2023-05-19T09:40:52.684Z,95556.81
2023-05-19T09:43:21.626Z,95560.44
2023-05-19T09:45:48.897Z,95550.41
2023-05-19T09:48:16.106Z,95548.22
2023-05-19T09:50:44.087Z,95559.13
2023-05-19T09:53:14.088Z,95550.72
2023-05-19T09:55:41.488Z,95546.41
2023-05-19T09:58:09.977Z,95543.00
2023-05-19T10:00:40.649Z,95544.16
2023-05-19T10:03:09.830Z,95544.75
2023-05-19T10:05:37.886Z,95551.94
2023-05-19T10:08:06.685Z,95539.25
2023-05-19T10:10:34.509Z,95541.94
2023-05-19T10:13:05.713Z,95534.56
2023-05-19T10:15:40.809Z,95539.91
2023-05-19T10:18:15.527Z,95540.63
2023-05-19T10:20:45.766Z,95543.53
2023-05-19T10:23:13.128Z,95535.22
2023-05-19T10:25:42.431Z,95540.06
2023-05-19T10:28:14.072Z,95544.97
2023-05-19T10:30:45.083Z,95544.13
2023-05-19T10:33:16.590Z,95544.63
2023-05-19T10:36:02.607Z,95540.66
2023-05-19T10:38:37.587Z,95534.13
2023-05-19T10:41:11.657Z,95536.50
2023-05-19T10:43:59.691Z,95530.41
2023-05-19T10:46:27.964Z,95533.06
2023-05-19T10:48:56.610Z,95532.09
2023-05-19T10:51:31.058Z,95533.81
2023-05-19T10:53:58.448Z,95532.03
2023-05-19T10:56:29.594Z,95527.78
2023-05-19T10:58:57.226Z,95520.00
2023-05-19T11:01:31.542Z,95526.63
2023-05-19T11:04:06.569Z,95528.50
2023-05-19T11:06:34.930Z,95521.22
2023-05-19T11:09:10.172Z,95527.56
2023-05-19T11:11:48.634Z,95521.75
2023-05-19T11:14:18.510Z,95520.16
2023-05-19T11:16:48.076Z,95526.00
2023-05-19T11:19:25.616Z,95523.13
2023-05-19T11:21:53.730Z,95525.53
2023-05-19T11:24:43.834Z,95519.66
2023-05-19T11:27:23.048Z,95518.06
2023-05-19T11:29:51.289Z,95516.22
2023-05-19T11:32:20.059Z,95519.44
2023-05-19T11:34:49.584Z,95512.00
2023-05-19T11:37:16.905Z,95508.50
2023-05-19T11:39:46.318Z,95514.03
2023-05-19T11:42:14.196Z,95501.75
2023-05-19T11:44:41.441Z,95510.13
2023-05-19T11:47:09.268Z,95499.94
2023-05-19T11:49:36.573Z,95505.84
2023-05-19T11:52:05.828Z,95506.88
2023-05-19T11:54:35.070Z,95511.13
2023-05-19T11:57:04.029Z,95509.94
2023-05-19T11:59:34.150Z,95500.94
2023-05-19T12:02:14.509Z,95499.19
2023-05-19T12:04:41.924Z,95488.53
2023-05-19T12:07:11.548Z,95492.78
2023-05-19T12:09:38.850Z,95486.34
2023-05-19T12:12:06.460Z,95479.19
2023-05-19T12:14:34.117Z,95487.47
2023-05-19T12:17:10.845Z,95481.31
2023-05-19T12:19:38.529Z,95490.38
2023-05-19T12:22:08.124Z,95484.00
2023-05-19T12:24:38.408Z,95490.38
2023-05-19T12:27:07.420Z,95495.94
2023-05-19T12:29:34.673Z,95486.91
2023-05-19T12:32:03.252Z,95487.06
2023-05-19T12:34:30.767Z,95490.34
2023-05-19T12:36:58.104Z,95482.28
2023-05-19T12:39:26.907Z,95482.13
2023-05-19T12:42:01.865Z,95486.06
2023-05-19T12:44:29.149Z,95491.97
2023-05-19T12:46:57.787Z,95485.94
2023-05-19T12:49:24.970Z,95487.69
2023-05-19T12:51:53.208Z,95489.31
2023-05-19T12:54:21.532Z,95487.19
2023-05-19T12:56:52.590Z,95478.50
2023-05-19T12:59:37.348Z,95474.63
2023-05-19T13:02:05.650Z,95471.13
2023-05-19T13:04:32.899Z,95463.09
2023-05-19T13:07:00.043Z,95461.53
2023-05-19T13:09:27.347Z,95484.25
2023-05-19T13:11:54.479Z,95479.00
2023-05-19T13:14:21.911Z,95475.19
2023-05-19T13:16:50.738Z,95466.78
2023-05-19T13:21:50.355Z,95453.59
2023-05-19T13:24:17.555Z,95461.44
2023-05-19T13:26:45.069Z,95455.41
2023-05-19T13:29:12.272Z,95467.09
2023-05-19T13:31:39.542Z,95467.38
2023-05-19T13:34:08.276Z,95469.00
2023-05-19T13:36:35.500Z,95473.25
2023-05-19T13:39:02.749Z,95467.63
2023-05-19T13:41:29.948Z,95466.84
2023-05-19T13:43:58.587Z,95487.66
2023-05-19T13:46:36.612Z,95476.78
2023-05-19T13:49:12.591Z,95491.13
2023-05-19T13:51:42.575Z,95486.63
2023-05-19T13:54:09.830Z,95480.09
2023-05-19T13:56:37.091Z,95465.56
2023-05-19T13:59:04.370Z,95461.34
2023-05-19T14:01:31.716Z,95470.97
2023-05-19T14:03:59.037Z,95464.78
2023-05-19T14:06:28.483Z,95462.41
2023-05-19T14:08:55.730Z,95456.44
2023-05-19T14:11:22.910Z,95459.72
2023-05-19T14:13:51.861Z,95455.91
2023-05-19T14:16:20.439Z,95465.66
2023-05-19T14:18:49.225Z,95465.69
2023-05-19T14:21:16.489Z,95480.44
2023-05-19T14:23:45.108Z,95475.84
2023-05-19T14:26:12.402Z,95465.09
2023-05-19T14:28:39.609Z,95473.63
2023-05-19T14:31:06.770Z,95490.69
2023-05-19T14:33:35.642Z,95483.06
2023-05-19T14:36:03.246Z,95468.53
2023-05-19T14:38:30.537Z,95470.16
2023-05-19T14:40:59.205Z,95475.47
2023-05-19T14:43:26.613Z,95476.88
2023-05-19T14:45:53.885Z,95463.66
2023-05-19T14:48:21.218Z,95464.66
2023-05-19T14:50:48.714Z,95468.09
2023-05-19T14:53:16.411Z,95450.69
2023-05-19T14:55:43.730Z,95457.41
2023-05-19T14:58:26.942Z,95455.44
2023-05-19T15:00:58.147Z,95453.81
2023-05-19T15:03:25.549Z,95455.84
2023-05-19T15:05:52.756Z,95470.53
2023-05-19T15:08:20.227Z,95481.25
2023-05-19T15:10:48.836Z,95470.13
2023-05-19T15:13:17.764Z,95468.91
2023-05-19T15:15:44.977Z,95454.81
2023-05-19T15:18:13.889Z,95458.50
2023-05-19T15:20:41.167Z,95454.34
2023-05-19T15:23:08.429Z,95463.59
2023-05-19T15:25:35.631Z,95462.69
2023-05-19T15:28:03.100Z,95458.06
2023-05-19T15:30:31.916Z,95455.06
2023-05-19T15:32:59.150Z,95477.88
2023-05-19T15:35:26.604Z,95447.16
2023-05-19T15:40:21.065Z,95457.78
2023-05-19T15:42:48.228Z,95449.38
2023-05-19T15:45:16.148Z,95458.38
2023-05-19T15:47:44.929Z,95457.09
2023-05-19T15:50:13.936Z,95453.25
2023-05-19T15:52:42.472Z,95457.03
2023-05-19T15:55:10.520Z,95458.16
2023-05-19T15:57:37.764Z,95464.94
2023-05-19T16:00:06.258Z,95461.50
2023-05-19T16:02:33.495Z,95457.09
2023-05-19T16:05:02.150Z,95462.50
2023-05-19T16:07:29.331Z,95450.50
2023-05-19T16:09:56.632Z,95451.25
2023-05-19T16:12:23.912Z,95448.47
2023-05-19T16:14:51.071Z,95441.44
2023-05-19T16:17:18.410Z,95448.66
2023-05-19T16:19:45.602Z,95444.09
2023-05-19T16:22:14.425Z,95440.16
2023-05-19T16:24:41.757Z,95440.72
2023-05-19T16:27:09.253Z,95435.75
2023-05-19T16:29:36.594Z,95436.91
2023-05-19T16:32:04.311Z,95430.19
2023-05-19T16:34:31.775Z,95429.53
2023-05-19T16:36:59.031Z,95424.41
2023-05-19T16:39:27.630Z,95427.53
2023-05-19T16:41:54.785Z,95431.94
2023-05-19T16:44:21.990Z,95427.78
2023-05-19T16:46:49.155Z,95426.72
2023-05-19T16:49:16.377Z,95428.75
2023-05-19T16:51:43.689Z,95427.63
2023-05-19T16:54:10.898Z,95424.66
2023-05-19T16:56:39.730Z,95429.09
2023-05-19T16:59:10.937Z,95426.25
2023-05-19T17:01:38.260Z,95421.53
2023-05-19T17:04:05.883Z,95431.91
2023-05-19T17:06:33.192Z,95416.34
2023-05-19T17:09:00.438Z,95426.78
2023-05-19T17:11:28.078Z,95430.13
2023-05-19T17:13:56.757Z,95432.19
2023-05-19T17:16:24.083Z,95423.97
2023-05-19T17:18:52.213Z,95426.13
2023-05-19T17:21:19.428Z,95429.84
2023-05-19T17:23:46.677Z,95441.56
2023-05-19T17:26:13.896Z,95435.97
2023-05-19T17:28:40.969Z,95444.81
2023-05-19T17:31:12.880Z,95446.16
2023-05-19T17:33:40.895Z,95436.06
2023-05-19T17:36:08.872Z,95435.38
2023-05-19T17:38:36.129Z,95431.56
2023-05-19T17:41:03.500Z,95427.66
2023-05-19T17:43:30.870Z,95424.16
2023-05-19T17:46:00.295Z,95418.63
2023-05-19T17:48:29.970Z,95422.09
2023-05-19T17:50:57.328Z,95425.75
2023-05-19T17:53:25.369Z,95420.03
2023-05-19T17:55:57.440Z,95416.84
2023-05-19T17:58:25.762Z,95417.13
2023-05-19T18:00:54.008Z,95425.84
2023-05-19T18:03:22.024Z,95422.97
2023-05-19T18:05:51.632Z,95428.72
2023-05-19T18:08:19.412Z,95431.34
2023-05-19T18:10:47.851Z,95430.47
2023-05-19T18:13:15.033Z,95434.47
2023-05-19T18:15:43.397Z,95445.63
2023-05-19T18:18:10.842Z,95436.81
2023-05-19T18:20:38.247Z,95435.53
2023-05-19T18:23:07.011Z,95427.63
2023-05-19T18:25:35.210Z,95434.41
2023-05-19T18:28:02.556Z,95434.28
2023-05-19T18:30:29.805Z,95430.09
2023-05-19T18:32:57.154Z,95431.03
2023-05-19T18:35:24.449Z,95431.22
2023-05-19T18:37:55.094Z,95431.22
2023-05-19T18:40:24.236Z,95431.50
2023-05-19T18:42:51.441Z,95424.63
2023-05-19T18:45:18.810Z,95431.47
2023-05-19T18:47:46.230Z,95428.81
2023-05-19T18:50:13.587Z,95430.84
2023-05-19T18:52:41.131Z,95438.31
2023-05-19T18:55:09.551Z,95427.63
2023-05-19T18:57:38.238Z,95427.16
2023-05-19T19:00:07.329Z,95425.78
2023-05-19T19:02:34.673Z,95425.16
2023-05-19T19:05:03.071Z,95426.53
2023-05-19T19:07:30.248Z,95424.94
2023-05-19T19:09:57.470Z,95429.72
2023-05-19T19:12:24.644Z,95423.28
2023-05-19T19:14:53.251Z,95432.03
2023-05-19T19:17:20.593Z,95430.78
2023-05-19T19:19:47.982Z,95428.69
2023-05-19T19:22:15.530Z,95435.28
2023-05-19T19:24:42.790Z,95439.13
2023-05-19T19:27:10.358Z,95432.78
2023-05-19T19:29:37.673Z,95442.81
2023-05-19T19:32:07.504Z,95449.22
2023-05-19T19:34:34.811Z,95443.63
2023-05-19T19:37:02.052Z,95447.63
2023-05-19T19:39:29.373Z,95443.22
2023-05-19T19:41:56.831Z,95448.75
2023-05-19T19:44:23.995Z,95446.34
2023-05-19T19:46:51.403Z,95446.97
2023-05-19T19:49:20.209Z,95442.44
2023-05-19T19:51:47.339Z,95442.38
2023-05-19T19:54:14.551Z,95438.44
2023-05-19T19:56:41.772Z,95442.94
2023-05-19T19:59:08.865Z,95449.00
2023-05-19T20:01:36.199Z,95444.19
2023-05-19T20:04:03.562Z,95445.88
2023-05-19T20:06:32.380Z,95439.34
2023-05-19T20:08:59.577Z,95437.00
2023-05-19T20:11:26.815Z,95440.19
2023-05-19T20:13:53.936Z,95450.06
2023-05-19T20:16:21.185Z,95441.34
2023-05-19T20:18:48.678Z,95441.13
2023-05-19T20:21:15.893Z,95437.69
2023-05-19T20:23:44.490Z,95439.56
2023-05-19T20:26:13.076Z,95440.81
2023-05-19T20:28:41.032Z,95444.91
2023-05-19T20:31:08.491Z,95442.94
2023-05-19T20:33:35.892Z,95437.22
2023-05-19T20:36:03.185Z,95439.69
2023-05-19T20:38:32.020Z,95438.41
2023-05-19T20:41:00.792Z,95442.31
2023-05-19T20:43:28.063Z,95440.34
2023-05-19T20:45:55.544Z,95437.91
2023-05-19T20:48:22.823Z,95445.13
2023-05-19T20:50:50.790Z,95442.09
2023-05-19T20:53:18.715Z,95447.47
2023-05-19T20:55:46.321Z,95442.19
2023-05-19T20:58:15.211Z,95440.66
2023-05-19T21:00:42.450Z,95439.25
2023-05-19T21:03:09.827Z,95440.56
2023-05-19T21:05:37.204Z,95440.44
2023-05-19T21:08:04.797Z,95443.44
2023-05-19T21:10:32.386Z,95439.81
2023-05-19T21:13:00.125Z,95440.72
2023-05-19T21:15:29.487Z,95445.22
2023-05-19T21:17:56.835Z,95447.22
2023-05-19T21:20:24.374Z,95437.75
2023-05-19T21:22:51.933Z,95439.63
2023-05-19T21:25:19.262Z,95432.41
2023-05-19T21:27:46.854Z,95431.81
2023-05-19T21:30:14.460Z,95435.53
2023-05-19T21:32:43.913Z,95434.00
2023-05-19T21:35:11.275Z,95433.84
2023-05-19T21:37:38.562Z,95431.63
2023-05-19T21:40:07.152Z,95434.16
2023-05-19T21:42:34.593Z,95432.28
2023-05-19T21:45:02.309Z,95421.53
2023-05-19T21:47:29.599Z,95427.22
2023-05-19T21:49:58.323Z,95420.88
2023-05-19T21:52:26.012Z,95420.56
2023-05-19T21:54:53.131Z,95425.84
2023-05-19T21:57:20.305Z,95425.28
2023-05-19T21:59:47.792Z,95418.94
2023-05-19T22:02:15.005Z,95419.59
2023-05-19T22:04:42.216Z,95416.19
2023-05-19T22:07:10.830Z,95416.97
2023-05-19T22:09:38.006Z,95408.31
2023-05-19T22:12:06.111Z,95424.50
2023-05-19T22:14:33.813Z,95422.88
2023-05-19T22:17:00.910Z,95414.47
2023-05-19T22:19:28.091Z,95418.22
2023-05-19T22:22:01.750Z,95422.22
2023-05-19T22:24:38.931Z,95415.41
2023-05-19T22:27:08.480Z,95417.78
2023-05-19T22:29:36.828Z,95416.22
2023-05-19T22:32:04.606Z,95410.72
2023-05-19T22:34:31.941Z,95417.09
2023-05-19T22:36:59.188Z,95412.41
2023-05-19T22:39:26.328Z,95413.19
2023-05-19T22:41:54.981Z,95408.44
2023-05-19T22:44:22.274Z,95413.59
2023-05-19T22:46:49.447Z,95411.09
2023-05-19T22:49:16.767Z,95420.66
2023-05-19T22:51:44.000Z,95415.03
2023-05-19T22:54:11.247Z,95416.97
2023-05-19T22:56:38.448Z,95417.69
2023-05-19T22:59:06.991Z,95410.53
2023-05-19T23:01:34.236Z,95416.16
2023-05-19T23:04:01.805Z,95404.09
2023-05-19T23:06:29.081Z,95408.44
2023-05-19T23:09:00.765Z,95399.47
2023-05-19T23:11:28.031Z,95409.97
2023-05-19T23:13:55.236Z,95403.97
2023-05-19T23:16:23.828Z,95401.41
2023-05-19T23:18:51.047Z,95404.06
2023-05-19T23:21:18.181Z,95403.28
2023-05-19T23:23:45.506Z,95404.13
2023-05-19T23:26:12.829Z,95396.69
2023-05-19T23:28:41.423Z,95391.66
2023-05-19T23:31:08.828Z,95394.31
2023-05-19T23:33:37.507Z,95399.78
2023-05-19T23:36:09.466Z,95396.13
2023-05-19T23:38:38.429Z,95402.28
2023-05-19T23:41:05.832Z,95397.13
2023-05-19T23:43:33.013Z,95399.47
2023-05-19T23:46:01.093Z,95400.78
2023-05-19T23:48:29.019Z,95398.31
2023-05-19T23:50:57.755Z,95396.94
2023-05-19T23:53:25.032Z,95393.09
2023-05-19T23:55:52.276Z,95396.78
2023-05-19T23:58:19.557Z,95393.56
